sensor_id;sensor_type;location;lat;lon;timestamp;P1;durP1;ratioP1;P2;durP2;ratioP2
71351;SDS011;59159;51.652;4.864;2022-08-19T00:02:24;7.37;;;3.73;;
71351;SDS011;59159;51.652;4.864;2022-08-19T00:04:50;8.48;;;3.88;;
71351;SDS011;59159;51.652;4.864;2022-08-19T00:07:20;7.30;;;3.63;;
71351;SDS011;59159;51.652;4.864;2022-08-19T00:09:47;7.85;;;3.80;;
71351;SDS011;59159;51.652;4.864;2022-08-19T00:12:14;7.93;;;4.00;;
71351;SDS011;59159;51.652;4.864;2022-08-19T00:14:40;9.90;;;4.13;;
71351;SDS011;59159;51.652;4.864;2022-08-19T00:17:06;7.05;;;3.75;;
71351;SDS011;59159;51.652;4.864;2022-08-19T00:19:33;7.03;;;3.43;;
71351;SDS011;59159;51.652;4.864;2022-08-19T00:22:00;8.45;;;3.97;;
71351;SDS011;59159;51.652;4.864;2022-08-19T00:24:27;10.75;;;4.18;;
71351;SDS011;59159;51.652;4.864;2022-08-19T00:26:53;7.10;;;4.20;;
71351;SDS011;59159;51.652;4.864;2022-08-19T00:29:20;7.95;;;3.80;;
71351;SDS011;59159;51.652;4.864;2022-08-19T00:31:46;7.05;;;3.50;;
71351;SDS011;59159;51.652;4.864;2022-08-19T00:34:13;7.93;;;3.90;;
71351;SDS011;59159;51.652;4.864;2022-08-19T00:36:39;8.03;;;4.30;;
71351;SDS011;59159;51.652;4.864;2022-08-19T00:39:06;8.25;;;3.78;;
71351;SDS011;59159;51.652;4.864;2022-08-19T00:41:32;8.35;;;4.05;;
71351;SDS011;59159;51.652;4.864;2022-08-19T00:44:09;7.23;;;3.53;;
71351;SDS011;59159;51.652;4.864;2022-08-19T00:46:37;7.32;;;3.60;;
71351;SDS011;59159;51.652;4.864;2022-08-19T00:49:06;7.50;;;3.70;;
71351;SDS011;59159;51.652;4.864;2022-08-19T00:51:34;7.63;;;4.10;;
71351;SDS011;59159;51.652;4.864;2022-08-19T00:54:01;6.95;;;3.50;;
71351;SDS011;59159;51.652;4.864;2022-08-19T00:56:28;7.88;;;3.50;;
71351;SDS011;59159;51.652;4.864;2022-08-19T00:58:56;7.88;;;3.58;;
71351;SDS011;59159;51.652;4.864;2022-08-19T01:01:23;7.47;;;3.80;;
71351;SDS011;59159;51.652;4.864;2022-08-19T01:03:49;8.27;;;4.10;;
71351;SDS011;59159;51.652;4.864;2022-08-19T01:06:16;8.23;;;3.58;;
71351;SDS011;59159;51.652;4.864;2022-08-19T01:08:42;7.43;;;3.50;;
71351;SDS011;59159;51.652;4.864;2022-08-19T01:11:08;6.80;;;3.75;;
71351;SDS011;59159;51.652;4.864;2022-08-19T01:13:34;7.07;;;3.40;;
71351;SDS011;59159;51.652;4.864;2022-08-19T01:16:02;8.87;;;3.57;;
71351;SDS011;59159;51.652;4.864;2022-08-19T01:18:29;7.03;;;3.53;;
71351;SDS011;59159;51.652;4.864;2022-08-19T01:20:57;8.02;;;3.47;;
71351;SDS011;59159;51.652;4.864;2022-08-19T01:23:23;6.82;;;3.25;;
71351;SDS011;59159;51.652;4.864;2022-08-19T01:26:07;6.77;;;3.03;;
71351;SDS011;59159;51.652;4.864;2022-08-19T01:28:35;7.68;;;3.60;;
71351;SDS011;59159;51.652;4.864;2022-08-19T01:31:01;7.63;;;3.63;;
71351;SDS011;59159;51.652;4.864;2022-08-19T01:33:27;8.20;;;3.50;;
71351;SDS011;59159;51.652;4.864;2022-08-19T01:36:03;6.40;;;3.50;;
71351;SDS011;59159;51.652;4.864;2022-08-19T01:38:29;8.00;;;3.60;;
71351;SDS011;59159;51.652;4.864;2022-08-19T01:40:56;8.13;;;3.53;;
71351;SDS011;59159;51.652;4.864;2022-08-19T01:43:23;7.30;;;3.08;;
71351;SDS011;59159;51.652;4.864;2022-08-19T01:45:49;6.78;;;3.25;;
71351;SDS011;59159;51.652;4.864;2022-08-19T01:48:15;6.45;;;2.83;;
71351;SDS011;59159;51.652;4.864;2022-08-19T01:50:42;7.80;;;3.57;;
71351;SDS011;59159;51.652;4.864;2022-08-19T01:53:09;7.18;;;3.67;;
71351;SDS011;59159;51.652;4.864;2022-08-19T01:55:39;8.57;;;3.97;;
71351;SDS011;59159;51.652;4.864;2022-08-19T01:58:05;6.40;;;3.27;;
71351;SDS011;59159;51.652;4.864;2022-08-19T02:00:32;6.28;;;2.88;;
71351;SDS011;59159;51.652;4.864;2022-08-19T02:02:58;6.50;;;3.30;;
71351;SDS011;59159;51.652;4.864;2022-08-19T02:05:26;7.30;;;3.30;;
71351;SDS011;59159;51.652;4.864;2022-08-19T02:07:54;6.50;;;3.47;;
71351;SDS011;59159;51.652;4.864;2022-08-19T02:10:21;7.00;;;3.40;;
71351;SDS011;59159;51.652;4.864;2022-08-19T02:12:47;7.20;;;3.35;;
71351;SDS011;59159;51.652;4.864;2022-08-19T02:15:14;7.30;;;3.50;;
71351;SDS011;59159;51.652;4.864;2022-08-19T02:17:41;8.63;;;3.83;;
71351;SDS011;59159;51.652;4.864;2022-08-19T02:20:07;6.65;;;3.25;;
71351;SDS011;59159;51.652;4.864;2022-08-19T02:22:33;7.20;;;3.40;;
71351;SDS011;59159;51.652;4.864;2022-08-19T02:25:02;8.40;;;3.75;;
71351;SDS011;59159;51.652;4.864;2022-08-19T02:27:29;7.63;;;3.17;;
71351;SDS011;59159;51.652;4.864;2022-08-19T02:29:56;7.07;;;3.40;;
71351;SDS011;59159;51.652;4.864;2022-08-19T02:32:22;7.38;;;3.47;;
71351;SDS011;59159;51.652;4.864;2022-08-19T02:34:48;7.50;;;3.97;;
71351;SDS011;59159;51.652;4.864;2022-08-19T02:37:14;7.30;;;3.53;;
71351;SDS011;59159;51.652;4.864;2022-08-19T02:39:58;7.00;;;3.73;;
71351;SDS011;59159;51.652;4.864;2022-08-19T02:42:24;7.88;;;3.92;;
71351;SDS011;59159;51.652;4.864;2022-08-19T02:44:50;10.10;;;4.32;;
71351;SDS011;59159;51.652;4.864;2022-08-19T02:47:17;11.03;;;4.53;;
71351;SDS011;59159;51.652;4.864;2022-08-19T02:49:43;8.48;;;3.65;;
71351;SDS011;59159;51.652;4.864;2022-08-19T02:52:09;8.10;;;4.18;;
71351;SDS011;59159;51.652;4.864;2022-08-19T02:54:36;8.30;;;4.23;;
71351;SDS011;59159;51.652;4.864;2022-08-19T02:57:02;8.95;;;4.50;;
71351;SDS011;59159;51.652;4.864;2022-08-19T02:59:32;7.35;;;3.85;;
71351;SDS011;59159;51.652;4.864;2022-08-19T03:01:58;9.38;;;5.00;;
71351;SDS011;59159;51.652;4.864;2022-08-19T03:04:24;8.77;;;4.80;;
71351;SDS011;59159;51.652;4.864;2022-08-19T03:06:50;9.45;;;4.85;;
71351;SDS011;59159;51.652;4.864;2022-08-19T03:09:17;7.75;;;4.00;;
71351;SDS011;59159;51.652;4.864;2022-08-19T03:11:44;8.67;;;5.30;;
71351;SDS011;59159;51.652;4.864;2022-08-19T03:14:10;8.80;;;4.78;;
71351;SDS011;59159;51.652;4.864;2022-08-19T03:16:54;9.63;;;5.47;;
71351;SDS011;59159;51.652;4.864;2022-08-19T03:19:20;8.57;;;4.77;;
71351;SDS011;59159;51.652;4.864;2022-08-19T03:21:47;9.15;;;4.40;;
71351;SDS011;59159;51.652;4.864;2022-08-19T03:24:15;9.98;;;4.53;;
71351;SDS011;59159;51.652;4.864;2022-08-19T03:26:41;9.68;;;4.88;;
71351;SDS011;59159;51.652;4.864;2022-08-19T03:29:08;8.97;;;4.43;;
71351;SDS011;59159;51.652;4.864;2022-08-19T03:31:36;9.60;;;5.05;;
71351;SDS011;59159;51.652;4.864;2022-08-19T03:34:02;10.48;;;5.25;;
71351;SDS011;59159;51.652;4.864;2022-08-19T03:36:28;10.83;;;5.30;;
71351;SDS011;59159;51.652;4.864;2022-08-19T03:38:55;9.45;;;5.20;;
71351;SDS011;59159;51.652;4.864;2022-08-19T03:41:23;11.68;;;5.60;;
71351;SDS011;59159;51.652;4.864;2022-08-19T03:43:49;8.87;;;4.67;;
71351;SDS011;59159;51.652;4.864;2022-08-19T03:46:16;11.27;;;5.38;;
71351;SDS011;59159;51.652;4.864;2022-08-19T03:48:45;10.35;;;5.88;;
71351;SDS011;59159;51.652;4.864;2022-08-19T03:51:22;10.65;;;5.47;;
71351;SDS011;59159;51.652;4.864;2022-08-19T03:53:49;10.30;;;5.63;;
71351;SDS011;59159;51.652;4.864;2022-08-19T03:56:15;10.40;;;5.45;;
71351;SDS011;59159;51.652;4.864;2022-08-19T03:58:41;9.88;;;5.00;;
71351;SDS011;59159;51.652;4.864;2022-08-19T04:01:12;10.77;;;5.03;;
71351;SDS011;59159;51.652;4.864;2022-08-19T04:03:39;11.77;;;5.60;;
71351;SDS011;59159;51.652;4.864;2022-08-19T04:06:09;10.93;;;5.43;;
71351;SDS011;59159;51.652;4.864;2022-08-19T04:08:35;10.73;;;5.60;;
71351;SDS011;59159;51.652;4.864;2022-08-19T04:11:01;11.48;;;6.20;;
71351;SDS011;59159;51.652;4.864;2022-08-19T04:13:27;11.07;;;6.13;;
71351;SDS011;59159;51.652;4.864;2022-08-19T04:15:53;10.60;;;5.72;;
71351;SDS011;59159;51.652;4.864;2022-08-19T04:18:19;11.17;;;5.40;;
71351;SDS011;59159;51.652;4.864;2022-08-19T04:20:46;10.43;;;5.63;;
71351;SDS011;59159;51.652;4.864;2022-08-19T04:23:13;12.13;;;6.75;;
71351;SDS011;59159;51.652;4.864;2022-08-19T04:25:40;10.50;;;5.63;;
71351;SDS011;59159;51.652;4.864;2022-08-19T04:28:08;9.30;;;5.05;;
71351;SDS011;59159;51.652;4.864;2022-08-19T04:30:38;9.55;;;5.63;;
71351;SDS011;59159;51.652;4.864;2022-08-19T04:33:06;10.70;;;5.67;;
71351;SDS011;59159;51.652;4.864;2022-08-19T04:35:51;10.25;;;5.50;;
71351;SDS011;59159;51.652;4.864;2022-08-19T04:38:18;10.13;;;5.50;;
71351;SDS011;59159;51.652;4.864;2022-08-19T04:40:46;10.30;;;5.93;;
71351;SDS011;59159;51.652;4.864;2022-08-19T04:43:31;9.87;;;5.53;;
71351;SDS011;59159;51.652;4.864;2022-08-19T04:45:57;22.80;;;13.30;;
71351;SDS011;59159;51.652;4.864;2022-08-19T04:48:24;27.33;;;16.10;;
71351;SDS011;59159;51.652;4.864;2022-08-19T04:50:54;32.17;;;16.53;;
71351;SDS011;59159;51.652;4.864;2022-08-19T04:53:27;28.13;;;16.38;;
71351;SDS011;59159;51.652;4.864;2022-08-19T04:55:54;31.20;;;17.45;;
71351;SDS011;59159;51.652;4.864;2022-08-19T04:58:21;29.27;;;16.73;;
71351;SDS011;59159;51.652;4.864;2022-08-19T05:00:47;30.27;;;16.63;;
71351;SDS011;59159;51.652;4.864;2022-08-19T05:03:13;30.45;;;17.05;;
71351;SDS011;59159;51.652;4.864;2022-08-19T05:05:42;29.60;;;16.63;;
71351;SDS011;59159;51.652;4.864;2022-08-19T05:08:08;27.87;;;16.33;;
71351;SDS011;59159;51.652;4.864;2022-08-19T05:10:35;32.00;;;15.90;;
71351;SDS011;59159;51.652;4.864;2022-08-19T05:13:01;27.60;;;15.70;;
71351;SDS011;59159;51.652;4.864;2022-08-19T05:15:28;28.50;;;15.53;;
71351;SDS011;59159;51.652;4.864;2022-08-19T05:17:54;26.50;;;15.18;;
71351;SDS011;59159;51.652;4.864;2022-08-19T05:20:38;27.48;;;16.15;;
71351;SDS011;59159;51.652;4.864;2022-08-19T05:23:23;27.90;;;15.03;;
71351;SDS011;59159;51.652;4.864;2022-08-19T05:25:50;26.60;;;14.68;;
71351;SDS011;59159;51.652;4.864;2022-08-19T05:28:16;26.13;;;14.73;;
71351;SDS011;59159;51.652;4.864;2022-08-19T05:30:43;27.55;;;14.90;;
71351;SDS011;59159;51.652;4.864;2022-08-19T05:33:09;27.57;;;14.83;;
71351;SDS011;59159;51.652;4.864;2022-08-19T05:35:37;27.05;;;14.43;;
71351;SDS011;59159;51.652;4.864;2022-08-19T05:38:04;27.48;;;13.82;;
71351;SDS011;59159;51.652;4.864;2022-08-19T05:40:30;25.17;;;13.50;;
71351;SDS011;59159;51.652;4.864;2022-08-19T05:42:56;27.77;;;13.45;;
71351;SDS011;59159;51.652;4.864;2022-08-19T05:45:22;29.65;;;14.50;;
71351;SDS011;59159;51.652;4.864;2022-08-19T05:47:48;25.73;;;14.50;;
71351;SDS011;59159;51.652;4.864;2022-08-19T05:50:14;24.88;;;14.52;;
71351;SDS011;59159;51.652;4.864;2022-08-19T05:52:42;29.63;;;14.73;;
71351;SDS011;59159;51.652;4.864;2022-08-19T05:55:08;27.23;;;13.32;;
71351;SDS011;59159;51.652;4.864;2022-08-19T05:57:35;25.80;;;13.33;;
71351;SDS011;59159;51.652;4.864;2022-08-19T06:00:01;26.38;;;13.65;;
71351;SDS011;59159;51.652;4.864;2022-08-19T06:02:32;27.17;;;12.32;;
71351;SDS011;59159;51.652;4.864;2022-08-19T06:05:00;25.23;;;12.90;;
71351;SDS011;59159;51.652;4.864;2022-08-19T06:07:27;28.50;;;13.50;;
71351;SDS011;59159;51.652;4.864;2022-08-19T06:09:53;23.60;;;12.00;;
71351;SDS011;59159;51.652;4.864;2022-08-19T06:12:20;27.30;;;12.57;;
71351;SDS011;59159;51.652;4.864;2022-08-19T06:14:55;25.05;;;12.25;;
71351;SDS011;59159;51.652;4.864;2022-08-19T06:17:21;24.83;;;12.35;;
71351;SDS011;59159;51.652;4.864;2022-08-19T06:19:50;23.20;;;11.88;;
71351;SDS011;59159;51.652;4.864;2022-08-19T06:22:16;23.30;;;11.63;;
71351;SDS011;59159;51.652;4.864;2022-08-19T06:24:43;25.15;;;11.93;;
71351;SDS011;59159;51.652;4.864;2022-08-19T06:27:09;24.70;;;12.25;;
71351;SDS011;59159;51.652;4.864;2022-08-19T06:29:35;27.00;;;13.40;;
71351;SDS011;59159;51.652;4.864;2022-08-19T06:32:02;26.55;;;13.45;;
71351;SDS011;59159;51.652;4.864;2022-08-19T06:34:29;25.80;;;12.43;;
71351;SDS011;59159;51.652;4.864;2022-08-19T06:36:58;26.53;;;14.20;;
71351;SDS011;59159;51.652;4.864;2022-08-19T06:39:26;27.58;;;12.43;;
71351;SDS011;59159;51.652;4.864;2022-08-19T06:41:54;27.02;;;14.20;;
71351;SDS011;59159;51.652;4.864;2022-08-19T06:44:23;26.35;;;12.52;;
71351;SDS011;59159;51.652;4.864;2022-08-19T06:46:50;29.23;;;12.60;;
71351;SDS011;59159;51.652;4.864;2022-08-19T06:49:17;28.20;;;13.52;;
71351;SDS011;59159;51.652;4.864;2022-08-19T06:51:44;28.80;;;11.93;;
71351;SDS011;59159;51.652;4.864;2022-08-19T06:54:12;18.23;;;9.40;;
71351;SDS011;59159;51.652;4.864;2022-08-19T06:56:38;21.25;;;9.60;;
71351;SDS011;59159;51.652;4.864;2022-08-19T06:59:06;19.35;;;8.77;;
71351;SDS011;59159;51.652;4.864;2022-08-19T07:01:43;20.00;;;8.00;;
71351;SDS011;59159;51.652;4.864;2022-08-19T07:04:12;18.30;;;8.43;;
71351;SDS011;59159;51.652;4.864;2022-08-19T07:06:38;18.80;;;6.88;;
71351;SDS011;59159;51.652;4.864;2022-08-19T07:09:07;14.55;;;7.07;;
71351;SDS011;59159;51.652;4.864;2022-08-19T07:11:33;16.20;;;8.07;;
71351;SDS011;59159;51.652;4.864;2022-08-19T07:14:00;15.85;;;6.65;;
71351;SDS011;59159;51.652;4.864;2022-08-19T07:16:26;16.10;;;6.30;;
71351;SDS011;59159;51.652;4.864;2022-08-19T07:18:53;13.07;;;6.53;;
71351;SDS011;59159;51.652;4.864;2022-08-19T07:21:20;14.32;;;6.13;;
71351;SDS011;59159;51.652;4.864;2022-08-19T07:23:47;10.60;;;4.82;;
71351;SDS011;59159;51.652;4.864;2022-08-19T07:26:14;12.53;;;5.10;;
71351;SDS011;59159;51.652;4.864;2022-08-19T07:28:41;10.57;;;5.03;;
71351;SDS011;59159;51.652;4.864;2022-08-19T07:31:10;12.90;;;5.20;;
71351;SDS011;59159;51.652;4.864;2022-08-19T07:33:37;11.80;;;4.65;;
71351;SDS011;59159;51.652;4.864;2022-08-19T07:36:04;9.93;;;4.60;;
71351;SDS011;59159;51.652;4.864;2022-08-19T07:38:30;11.68;;;4.72;;
71351;SDS011;59159;51.652;4.864;2022-08-19T07:40:56;10.80;;;4.87;;
71351;SDS011;59159;51.652;4.864;2022-08-19T07:43:22;10.52;;;5.40;;
71351;SDS011;59159;51.652;4.864;2022-08-19T07:45:51;8.57;;;4.57;;
71351;SDS011;59159;51.652;4.864;2022-08-19T07:48:18;8.18;;;4.07;;
71351;SDS011;59159;51.652;4.864;2022-08-19T07:50:44;10.98;;;5.28;;
71351;SDS011;59159;51.652;4.864;2022-08-19T07:53:10;14.18;;;5.03;;
71351;SDS011;59159;51.652;4.864;2022-08-19T07:55:37;10.13;;;4.53;;
71351;SDS011;59159;51.652;4.864;2022-08-19T07:58:03;9.18;;;5.30;;
71351;SDS011;59159;51.652;4.864;2022-08-19T08:00:29;11.48;;;5.20;;
71351;SDS011;59159;51.652;4.864;2022-08-19T08:02:56;12.50;;;5.60;;
71351;SDS011;59159;51.652;4.864;2022-08-19T08:05:22;10.68;;;5.75;;
71351;SDS011;59159;51.652;4.864;2022-08-19T08:08:27;12.00;;;4.78;;
71351;SDS011;59159;51.652;4.864;2022-08-19T08:11:13;11.03;;;5.17;;
71351;SDS011;59159;51.652;4.864;2022-08-19T08:13:39;11.63;;;5.40;;
71351;SDS011;59159;51.652;4.864;2022-08-19T08:16:06;12.05;;;5.00;;
71351;SDS011;59159;51.652;4.864;2022-08-19T08:18:32;10.32;;;4.97;;
71351;SDS011;59159;51.652;4.864;2022-08-19T08:20:59;9.00;;;4.63;;
71351;SDS011;59159;51.652;4.864;2022-08-19T08:23:28;9.85;;;5.03;;
71351;SDS011;59159;51.652;4.864;2022-08-19T08:25:56;10.15;;;5.28;;
71351;SDS011;59159;51.652;4.864;2022-08-19T08:28:23;11.00;;;4.97;;
71351;SDS011;59159;51.652;4.864;2022-08-19T08:30:49;8.80;;;5.10;;
71351;SDS011;59159;51.652;4.864;2022-08-19T08:33:18;8.50;;;4.43;;
71351;SDS011;59159;51.652;4.864;2022-08-19T08:35:44;8.90;;;3.93;;
71351;SDS011;59159;51.652;4.864;2022-08-19T08:38:10;10.07;;;4.65;;
71351;SDS011;59159;51.652;4.864;2022-08-19T08:48:35;10.38;;;4.88;;
71351;SDS011;59159;51.652;4.864;2022-08-19T08:51:08;11.85;;;5.78;;
71351;SDS011;59159;51.652;4.864;2022-08-19T08:53:35;10.70;;;5.67;;
71351;SDS011;59159;51.652;4.864;2022-08-19T08:56:04;10.40;;;5.50;;
71351;SDS011;59159;51.652;4.864;2022-08-19T09:01:11;11.13;;;5.60;;
71351;SDS011;59159;51.652;4.864;2022-08-19T09:03:38;10.75;;;5.63;;
71351;SDS011;59159;51.652;4.864;2022-08-19T09:08:39;12.13;;;5.30;;
71351;SDS011;59159;51.652;4.864;2022-08-19T09:11:10;10.83;;;5.40;;
71351;SDS011;59159;51.652;4.864;2022-08-19T09:16:25;12.25;;;5.15;;
71351;SDS011;59159;51.652;4.864;2022-08-19T09:18:53;12.20;;;5.07;;
71351;SDS011;59159;51.652;4.864;2022-08-19T09:21:20;9.45;;;5.05;;
71351;SDS011;59159;51.652;4.864;2022-08-19T09:23:48;10.68;;;5.25;;
71351;SDS011;59159;51.652;4.864;2022-08-19T09:26:17;9.80;;;4.97;;
71351;SDS011;59159;51.652;4.864;2022-08-19T09:28:45;9.57;;;5.40;;
71351;SDS011;59159;51.652;4.864;2022-08-19T09:31:13;9.27;;;4.93;;
71351;SDS011;59159;51.652;4.864;2022-08-19T09:33:39;10.45;;;4.60;;
71351;SDS011;59159;51.652;4.864;2022-08-19T09:36:09;10.37;;;5.00;;
71351;SDS011;59159;51.652;4.864;2022-08-19T09:38:36;10.52;;;5.03;;
71351;SDS011;59159;51.652;4.864;2022-08-19T09:41:09;11.15;;;4.95;;
71351;SDS011;59159;51.652;4.864;2022-08-19T09:43:37;10.47;;;4.90;;
71351;SDS011;59159;51.652;4.864;2022-08-19T09:46:04;9.57;;;4.28;;
71351;SDS011;59159;51.652;4.864;2022-08-19T09:48:32;9.15;;;4.38;;
71351;SDS011;59159;51.652;4.864;2022-08-19T09:51:12;10.07;;;4.57;;
71351;SDS011;59159;51.652;4.864;2022-08-19T09:53:40;8.82;;;4.07;;
71351;SDS011;59159;51.652;4.864;2022-08-19T09:56:07;10.65;;;5.10;;
71351;SDS011;59159;51.652;4.864;2022-08-19T09:58:33;10.10;;;4.57;;
71351;SDS011;59159;51.652;4.864;2022-08-19T10:00:59;9.40;;;4.47;;
71351;SDS011;59159;51.652;4.864;2022-08-19T10:03:26;9.90;;;4.20;;
71351;SDS011;59159;51.652;4.864;2022-08-19T10:05:53;9.23;;;4.55;;
71351;SDS011;59159;51.652;4.864;2022-08-19T10:08:21;12.00;;;4.53;;
71351;SDS011;59159;51.652;4.864;2022-08-19T10:10:48;9.52;;;4.28;;
71351;SDS011;59159;51.652;4.864;2022-08-19T10:13:15;8.60;;;4.50;;
71351;SDS011;59159;51.652;4.864;2022-08-19T10:15:42;10.13;;;4.90;;
71351;SDS011;59159;51.652;4.864;2022-08-19T10:18:09;9.90;;;4.40;;
71351;SDS011;59159;51.652;4.864;2022-08-19T10:20:36;9.27;;;4.38;;
71351;SDS011;59159;51.652;4.864;2022-08-19T10:23:02;10.35;;;4.78;;
71351;SDS011;59159;51.652;4.864;2022-08-19T10:25:28;11.47;;;4.20;;
71351;SDS011;59159;51.652;4.864;2022-08-19T10:27:54;10.68;;;4.45;;
71351;SDS011;59159;51.652;4.864;2022-08-19T10:30:21;8.57;;;4.05;;
71351;SDS011;59159;51.652;4.864;2022-08-19T10:32:47;9.67;;;4.07;;
71351;SDS011;59159;51.652;4.864;2022-08-19T10:35:13;11.18;;;4.95;;
71351;SDS011;59159;51.652;4.864;2022-08-19T10:37:39;8.35;;;4.28;;
71351;SDS011;59159;51.652;4.864;2022-08-19T10:40:06;10.30;;;4.47;;
71351;SDS011;59159;51.652;4.864;2022-08-19T10:42:33;11.60;;;4.70;;
71351;SDS011;59159;51.652;4.864;2022-08-19T10:44:59;10.90;;;3.97;;
71351;SDS011;59159;51.652;4.864;2022-08-19T10:47:25;9.13;;;4.35;;
71351;SDS011;59159;51.652;4.864;2022-08-19T10:49:52;9.83;;;4.87;;
71351;SDS011;59159;51.652;4.864;2022-08-19T10:52:36;9.38;;;4.35;;
71351;SDS011;59159;51.652;4.864;2022-08-19T10:55:03;8.20;;;4.30;;
71351;SDS011;59159;51.652;4.864;2022-08-19T10:57:48;9.87;;;4.10;;
71351;SDS011;59159;51.652;4.864;2022-08-19T11:00:14;9.98;;;4.85;;
71351;SDS011;59159;51.652;4.864;2022-08-19T11:02:41;8.73;;;4.50;;
71351;SDS011;59159;51.652;4.864;2022-08-19T11:05:07;21.00;;;6.00;;
71351;SDS011;59159;51.652;4.864;2022-08-19T11:07:36;9.60;;;4.85;;
71351;SDS011;59159;51.652;4.864;2022-08-19T11:10:03;9.63;;;4.15;;
71351;SDS011;59159;51.652;4.864;2022-08-19T11:12:29;11.88;;;4.00;;
71351;SDS011;59159;51.652;4.864;2022-08-19T11:14:55;10.20;;;4.50;;
71351;SDS011;59159;51.652;4.864;2022-08-19T11:17:21;8.63;;;4.40;;
71351;SDS011;59159;51.652;4.864;2022-08-19T11:19:48;8.00;;;4.15;;
71351;SDS011;59159;51.652;4.864;2022-08-19T11:22:15;9.20;;;3.93;;
71351;SDS011;59159;51.652;4.864;2022-08-19T11:24:42;9.63;;;4.03;;
71351;SDS011;59159;51.652;4.864;2022-08-19T11:27:08;9.15;;;4.00;;
71351;SDS011;59159;51.652;4.864;2022-08-19T11:29:35;8.17;;;4.07;;
71351;SDS011;59159;51.652;4.864;2022-08-19T11:32:04;9.15;;;4.68;;
71351;SDS011;59159;51.652;4.864;2022-08-19T11:34:30;6.97;;;3.75;;
71351;SDS011;59159;51.652;4.864;2022-08-19T11:36:56;8.40;;;4.05;;
71351;SDS011;59159;51.652;4.864;2022-08-19T11:39:24;7.80;;;4.27;;
71351;SDS011;59159;51.652;4.864;2022-08-19T11:41:50;10.05;;;4.55;;
71351;SDS011;59159;51.652;4.864;2022-08-19T11:44:16;10.38;;;4.25;;
71351;SDS011;59159;51.652;4.864;2022-08-19T11:46:43;11.00;;;4.23;;
71351;SDS011;59159;51.652;4.864;2022-08-19T11:49:16;8.75;;;4.43;;
71351;SDS011;59159;51.652;4.864;2022-08-19T11:51:43;7.95;;;3.40;;
71351;SDS011;59159;51.652;4.864;2022-08-19T11:54:10;8.70;;;4.17;;
71351;SDS011;59159;51.652;4.864;2022-08-19T11:56:36;9.50;;;3.95;;
71351;SDS011;59159;51.652;4.864;2022-08-19T11:59:02;10.60;;;4.22;;
71351;SDS011;59159;51.652;4.864;2022-08-19T12:01:28;9.02;;;4.40;;
71351;SDS011;59159;51.652;4.864;2022-08-19T12:03:55;8.10;;;4.90;;
71351;SDS011;59159;51.652;4.864;2022-08-19T12:06:26;9.30;;;4.20;;
71351;SDS011;59159;51.652;4.864;2022-08-19T12:08:57;10.35;;;4.47;;
71351;SDS011;59159;51.652;4.864;2022-08-19T12:11:24;9.83;;;4.60;;
71351;SDS011;59159;51.652;4.864;2022-08-19T12:13:50;9.35;;;4.75;;
71351;SDS011;59159;51.652;4.864;2022-08-19T12:16:18;8.45;;;4.53;;
71351;SDS011;59159;51.652;4.864;2022-08-19T12:18:44;9.37;;;4.53;;
71351;SDS011;59159;51.652;4.864;2022-08-19T12:21:12;13.38;;;4.70;;
71351;SDS011;59159;51.652;4.864;2022-08-19T12:23:38;9.80;;;4.82;;
71351;SDS011;59159;51.652;4.864;2022-08-19T12:26:05;8.43;;;4.15;;
71351;SDS011;59159;51.652;4.864;2022-08-19T12:28:31;9.73;;;4.60;;
71351;SDS011;59159;51.652;4.864;2022-08-19T12:30:57;10.38;;;4.78;;
71351;SDS011;59159;51.652;4.864;2022-08-19T12:33:23;10.13;;;4.55;;
71351;SDS011;59159;51.652;4.864;2022-08-19T12:35:52;8.73;;;4.20;;
71351;SDS011;59159;51.652;4.864;2022-08-19T12:38:18;8.50;;;5.00;;
71351;SDS011;59159;51.652;4.864;2022-08-19T12:40:45;10.50;;;4.80;;
71351;SDS011;59159;51.652;4.864;2022-08-19T12:43:11;11.23;;;4.23;;
71351;SDS011;59159;51.652;4.864;2022-08-19T12:45:38;10.43;;;4.68;;
71351;SDS011;59159;51.652;4.864;2022-08-19T12:48:04;15.00;;;6.60;;
71351;SDS011;59159;51.652;4.864;2022-08-19T12:50:30;12.23;;;6.57;;
71351;SDS011;59159;51.652;4.864;2022-08-19T12:52:57;14.17;;;6.77;;
71351;SDS011;59159;51.652;4.864;2022-08-19T12:55:23;15.20;;;7.47;;
71351;SDS011;59159;51.652;4.864;2022-08-19T12:57:49;13.73;;;6.93;;
71351;SDS011;59159;51.652;4.864;2022-08-19T13:00:18;14.13;;;6.97;;
71351;SDS011;59159;51.652;4.864;2022-08-19T13:02:46;16.60;;;7.53;;
71351;SDS011;59159;51.652;4.864;2022-08-19T13:05:15;13.50;;;7.22;;
71351;SDS011;59159;51.652;4.864;2022-08-19T13:07:41;14.00;;;7.03;;
71351;SDS011;59159;51.652;4.864;2022-08-19T13:10:09;12.88;;;6.70;;
71351;SDS011;59159;51.652;4.864;2022-08-19T13:12:36;12.10;;;6.65;;
71351;SDS011;59159;51.652;4.864;2022-08-19T13:15:04;12.23;;;6.85;;
71351;SDS011;59159;51.652;4.864;2022-08-19T13:17:30;15.90;;;8.03;;
71351;SDS011;59159;51.652;4.864;2022-08-19T13:19:58;14.13;;;6.68;;
71351;SDS011;59159;51.652;4.864;2022-08-19T13:22:24;12.18;;;7.35;;
71351;SDS011;59159;51.652;4.864;2022-08-19T13:24:50;12.77;;;6.53;;
71351;SDS011;59159;51.652;4.864;2022-08-19T13:27:16;11.55;;;6.45;;
71351;SDS011;59159;51.652;4.864;2022-08-19T13:29:42;11.73;;;5.95;;
71351;SDS011;59159;51.652;4.864;2022-08-19T13:32:26;11.57;;;5.60;;
71351;SDS011;59159;51.652;4.864;2022-08-19T13:35:12;11.27;;;6.07;;
71351;SDS011;59159;51.652;4.864;2022-08-19T13:37:38;11.93;;;6.03;;
71351;SDS011;59159;51.652;4.864;2022-08-19T13:40:12;13.15;;;7.10;;
71351;SDS011;59159;51.652;4.864;2022-08-19T13:42:41;12.70;;;7.37;;
71351;SDS011;59159;51.652;4.864;2022-08-19T13:45:07;14.27;;;7.00;;
71351;SDS011;59159;51.652;4.864;2022-08-19T13:47:34;12.75;;;6.95;;
71351;SDS011;59159;51.652;4.864;2022-08-19T13:50:03;13.37;;;7.07;;
71351;SDS011;59159;51.652;4.864;2022-08-19T13:52:29;12.93;;;7.50;;
71351;SDS011;59159;51.652;4.864;2022-08-19T13:54:55;14.63;;;8.15;;
71351;SDS011;59159;51.652;4.864;2022-08-19T13:57:21;13.30;;;7.47;;
71351;SDS011;59159;51.652;4.864;2022-08-19T13:59:47;13.82;;;7.78;;
71351;SDS011;59159;51.652;4.864;2022-08-19T14:02:13;14.27;;;7.55;;
71351;SDS011;59159;51.652;4.864;2022-08-19T14:04:39;14.85;;;7.43;;
71351;SDS011;59159;51.652;4.864;2022-08-19T14:07:05;13.60;;;7.27;;
71351;SDS011;59159;51.652;4.864;2022-08-19T14:09:31;14.38;;;7.18;;
71351;SDS011;59159;51.652;4.864;2022-08-19T14:11:57;15.07;;;7.38;;
71351;SDS011;59159;51.652;4.864;2022-08-19T14:14:23;15.50;;;8.10;;
71351;SDS011;59159;51.652;4.864;2022-08-19T14:16:49;14.60;;;8.00;;
71351;SDS011;59159;51.652;4.864;2022-08-19T14:19:16;15.07;;;8.95;;
71351;SDS011;59159;51.652;4.864;2022-08-19T14:21:42;15.23;;;8.17;;
71351;SDS011;59159;51.652;4.864;2022-08-19T14:24:08;17.83;;;8.40;;
71351;SDS011;59159;51.652;4.864;2022-08-19T14:26:34;19.65;;;8.75;;
71351;SDS011;59159;51.652;4.864;2022-08-19T14:29:00;17.10;;;8.55;;
71351;SDS011;59159;51.652;4.864;2022-08-19T14:31:26;15.80;;;8.50;;
71351;SDS011;59159;51.652;4.864;2022-08-19T14:33:52;13.82;;;6.70;;
71351;SDS011;59159;51.652;4.864;2022-08-19T14:36:19;13.70;;;7.07;;
71351;SDS011;59159;51.652;4.864;2022-08-19T14:38:46;14.27;;;6.80;;
71351;SDS011;59159;51.652;4.864;2022-08-19T14:41:15;13.93;;;6.70;;
71351;SDS011;59159;51.652;4.864;2022-08-19T14:43:43;10.65;;;4.93;;
71351;SDS011;59159;51.652;4.864;2022-08-19T14:46:11;13.70;;;4.50;;
71351;SDS011;59159;51.652;4.864;2022-08-19T14:48:37;9.85;;;4.28;;
71351;SDS011;59159;51.652;4.864;2022-08-19T14:51:04;9.15;;;4.43;;
71351;SDS011;59159;51.652;4.864;2022-08-19T14:53:30;9.48;;;4.45;;
71351;SDS011;59159;51.652;4.864;2022-08-19T14:55:58;9.30;;;4.67;;
71351;SDS011;59159;51.652;4.864;2022-08-19T14:58:24;9.63;;;5.00;;